Time;durP1;ratioP1;P1;durP2;ratioP2;P2;SDS_P1;SDS_P2;PMS_P1;PMS_P2;Temp;Humidity;BMP_temperature;BMP_pressure;BME280_temperature;BME280_humidity;BME280_pressure;Samples;Min_cycle;Max_cycle;Signal;HPM_P1;HPM_P2
2022/10/02 00:01:57;;;;;;;6.40;5.50;;;;;;;14.28;96.75;98579.56;107805;1288;22546;-65
2022/10/02 00:04:28;;;;;;;7.30;5.20;;;;;;;14.27;97.01;98570.62;107886;1288;22519;-65
2022/10/02 00:06:57;;;;;;;7.00;5.00;;;;;;;14.27;97.17;98573.85;107684;1289;23117;-65
2022/10/02 00:09:29;;;;;;;6.80;5.40;;;;;;;14.28;97.01;98579.21;107570;1290;22716;-65
2022/10/02 00:11:57;;;;;;;5.80;5.20;;;;;;;14.27;96.98;98583.61;107515;1289;22419;-65
2022/10/02 00:14:24;;;;;;;8.50;5.60;;;;;;;14.25;97.05;98575.52;107934;1282;22500;-65
2022/10/02 00:16:53;;;;;;;8.40;5.80;;;;;;;14.25;97.17;98558.05;108499;1282;23278;-65
2022/10/02 00:19:20;;;;;;;6.30;5.10;;;;;;;14.25;97.28;98540.62;108155;1284;22541;-65
2022/10/02 00:21:50;;;;;;;7.70;4.80;;;;;;;14.26;97.28;98527.34;108562;1282;22464;-65
2022/10/02 00:24:18;;;;;;;5.20;4.60;;;;;;;14.25;97.23;98519.54;108485;1282;23172;-65
2022/10/02 00:27:23;;;;;;;7.90;5.10;;;;;;;14.24;97.24;98519.75;108463;1282;22430;-65
2022/10/02 00:29:51;;;;;;;5.90;4.90;;;;;;;14.24;97.19;98516.20;108431;1282;22636;-66
2022/10/02 00:32:34;;;;;;;6.40;5.20;;;;;;;14.22;97.06;98512.89;108498;1276;23634;-66
2022/10/02 00:35:19;;;;;;;8.50;5.10;;;;;;;14.21;97.11;98513.79;109313;1274;22573;-65
2022/10/02 00:38:10;;;;;;;5.90;4.40;;;;;;;14.20;96.99;98503.36;109310;1274;22448;-66
2022/10/02 00:41:15;;;;;;;12.60;5.20;;;;;;;14.18;97.03;98487.93;109383;1273;22554;-65
2022/10/02 00:43:54;;;;;;;6.90;5.30;;;;;;;14.14;97.21;98479.84;109252;1274;22459;-65
2022/10/02 00:46:25;;;;;;;6.30;4.80;;;;;;;14.12;97.12;98479.48;109238;1274;22443;-66
2022/10/02 00:49:14;;;;;;;6.80;5.10;;;;;;;14.09;97.19;98481.05;109333;1274;23294;-65
2022/10/02 00:52:02;;;;;;;6.40;4.90;;;;;;;14.07;97.35;98475.67;109340;1273;22398;-65
2022/10/02 00:54:54;;;;;;;6.70;5.20;;;;;;;14.05;97.52;98468.16;109317;1273;22401;-65
2022/10/02 00:57:35;;;;;;;10.10;5.30;;;;;;;14.05;97.61;98467.40;109325;1273;22470;-65
2022/10/02 01:00:12;;;;;;;6.60;4.40;;;;;;;14.04;97.55;98457.45;109168;1273;23204;-65
2022/10/02 01:03:01;;;;;;;6.70;4.80;;;;;;;14.00;97.59;98453.75;109341;1274;22461;-65
2022/10/02 01:05:28;;;;;;;6.00;4.70;;;;;;;13.96;97.60;98455.27;109326;1274;22464;-65
2022/10/02 01:07:54;;;;;;;4.80;4.20;;;;;;;13.96;97.83;98452.88;109341;1274;23177;-65
2022/10/02 01:10:22;;;;;;;9.70;5.80;;;;;;;13.96;97.84;98444.48;109350;1274;22425;-65
2022/10/02 01:12:48;;;;;;;5.30;4.20;;;;;;;13.96;97.71;98443.98;109349;1274;22629;-66
2022/10/02 01:15:20;;;;;;;8.70;4.70;;;;;;;13.94;97.65;98446.44;109355;1274;22429;-65
2022/10/02 01:17:49;;;;;;;6.00;4.10;;;;;;;13.93;97.64;98440.89;109358;1274;22466;-65
2022/10/02 01:20:22;;;;;;;4.80;4.20;;;;;;;13.92;97.52;98432.30;109373;1274;23148;-65
2022/10/02 01:22:52;;;;;;;6.00;4.20;;;;;;;13.90;97.51;98423.68;109412;1274;22443;-65
2022/10/02 01:25:18;;;;;;;6.30;4.20;;;;;;;13.88;97.46;98420.98;109368;1274;22452;-65
2022/10/02 01:27:45;;;;;;;9.20;4.00;;;;;;;13.86;97.50;98410.52;109293;1274;22435;-65
2022/10/02 01:30:16;;;;;;;5.50;4.20;;;;;;;13.84;97.40;98404.83;109331;1274;23600;-65
2022/10/02 01:32:49;;;;;;;5.10;3.70;;;;;;;13.80;97.41;98395.92;109313;1274;22429;-65
2022/10/02 01:35:16;;;;;;;7.80;4.30;;;;;;;13.76;97.46;98393.42;109388;1274;22458;-64
2022/10/02 01:37:43;;;;;;;4.90;3.80;;;;;;;13.73;97.61;98390.42;109347;1274;22393;-65
2022/10/02 01:40:22;;;;;;;6.20;3.80;;;;;;;13.70;97.68;98381.58;107519;1274;22559;-63
2022/10/02 01:42:49;;;;;;;5.30;4.20;;;;;;;13.66;97.69;98372.67;104868;1275;22544;-63
2022/10/02 01:45:16;;;;;;;12.50;5.00;;;;;;;13.64;97.85;98366.15;104978;1277;22538;-63
2022/10/02 01:48:03;;;;;;;12.30;3.80;;;;;;;13.60;97.95;98368.84;104916;1274;23488;-63
2022/10/02 01:50:53;;;;;;;5.00;3.70;;;;;;;13.57;98.14;98366.39;105013;1274;26129;-63
2022/10/02 01:53:27;;;;;;;5.60;3.80;;;;;;;13.55;98.28;98363.13;105051;1274;22608;-63
2022/10/02 01:56:16;;;;;;;5.60;3.80;;;;;;;13.53;98.53;98362.34;104942;1274;22900;-63
2022/10/02 01:59:04;;;;;;;7.50;4.10;;;;;;;13.52;98.63;98357.81;104948;1275;22576;-64
2022/10/02 02:01:36;;;;;;;;;;;;;;;13.50;98.56;98355.11;109356;1274;22498;-64
2022/10/02 02:04:13;;;;;;;6.90;3.50;;;;;;;13.48;98.73;98348.98;109395;1274;22507;-64
2022/10/02 02:06:51;;;;;;;4.20;3.70;;;;;;;13.47;98.87;98347.13;109241;1273;22451;-63
2022/10/02 02:09:21;;;;;;;3.70;3.00;;;;;;;13.48;98.94;98339.18;109400;1273;22475;-64
2022/10/02 02:12:17;;;;;;;4.30;3.40;;;;;;;13.48;98.91;98335.12;109282;1274;23119;-64
2022/10/02 02:14:57;;;;;;;5.70;3.50;;;;;;;13.48;98.81;98327.02;109164;1274;22415;-64
2022/10/02 02:17:33;;;;;;;4.20;2.90;;;;;;;13.49;98.74;98316.45;109330;1273;22419;-65
2022/10/02 02:20:01;;;;;;;4.10;3.70;;;;;;;13.49;98.59;98302.86;109332;1273;22475;-64
2022/10/02 02:22:29;;;;;;;3.30;2.90;;;;;;;13.49;98.44;98289.19;109331;1273;22484;-64
2022/10/02 02:24:58;;;;;;;4.50;3.20;;;;;;;13.50;98.32;98283.27;109251;1273;22474;-64
2022/10/02 02:27:28;;;;;;;4.40;3.00;;;;;;;13.50;98.22;98281.07;109402;1273;22488;-64
2022/10/02 02:29:57;;;;;;;4.10;2.90;;;;;;;13.50;98.19;98277.02;109199;1274;22485;-64
2022/10/02 02:32:26;;;;;;;4.80;3.10;;;;;;;13.50;97.93;98273.29;109180;1275;23476;-65
2022/10/02 02:34:56;;;;;;;3.90;3.20;;;;;;;13.50;97.81;98263.94;109200;1274;22433;-64
2022/10/02 02:37:23;;;;;;;4.60;3.10;;;;;;;13.49;97.81;98254.70;109317;1273;22384;-64
2022/10/02 02:39:52;;;;;;;4.10;2.90;;;;;;;13.49;97.70;98246.11;107914;1275;26458;-63
2022/10/02 02:42:21;;;;;;;4.10;2.80;;;;;;;13.50;97.58;98239.13;109417;1274;22487;-64
2022/10/02 02:45:16;;;;;;;4.10;3.10;;;;;;;13.50;97.45;98234.43;109195;1273;22496;-64
2022/10/02 02:48:01;;;;;;;3.50;3.20;;;;;;;13.50;97.57;98224.09;109348;1273;22414;-64
2022/10/02 02:50:56;;;;;;;3.90;2.60;;;;;;;13.50;97.62;98219.00;109274;1273;22490;-64
2022/10/02 02:53:25;;;;;;;5.70;2.70;;;;;;;13.51;97.62;98211.27;109312;1273;23090;-65
2022/10/02 02:55:57;;;;;;;5.30;3.20;;;;;;;13.52;97.66;98211.84;109350;1273;22472;-64
2022/10/02 02:58:26;;;;;;;6.50;3.00;;;;;;;13.53;97.50;98207.77;109125;1273;22449;-64
2022/10/02 03:00:52;;;;;;;6.10;3.40;;;;;;;13.55;97.42;98205.66;109240;1274;22358;-68
2022/10/02 03:03:19;;;;;;;5.80;3.50;;;;;;;13.55;97.42;98196.95;109307;1273;22484;-64
2022/10/02 03:05:48;;;;;;;81.20;55.90;;;;;;;13.56;97.35;98194.55;109224;1276;22473;-65
2022/10/02 03:08:19;;;;;;;10.70;7.00;;;;;;;13.58;97.35;98193.14;109387;1274;22455;-64
2022/10/02 03:11:23;;;;;;;6.50;4.50;;;;;;;13.60;97.38;98190.59;109310;1273;22421;-65
2022/10/02 03:14:19;;;;;;;8.00;4.50;;;;;;;13.62;97.22;98184.08;109295;1273;22548;-65
2022/10/02 03:16:55;;;;;;;6.70;4.20;;;;;;;13.63;97.03;98181.80;109117;1273;22399;-65
2022/10/02 03:19:56;;;;;;;6.10;4.30;;;;;;;13.64;96.98;98179.65;109309;1273;23151;-65
2022/10/02 03:22:25;;;;;;;5.90;4.30;;;;;;;13.65;96.83;98171.58;109345;1273;22660;-64
2022/10/02 03:24:55;;;;;;;8.60;4.30;;;;;;;13.65;96.83;98169.16;109337;1274;22690;-64
2022/10/02 03:27:48;;;;;;;6.00;4.00;;;;;;;13.64;96.79;98162.23;109293;1274;22593;-64
2022/10/02 03:30:19;;;;;;;6.20;4.00;;;;;;;13.64;96.75;98154.73;109269;1274;23668;-65
2022/10/02 03:32:46;;;;;;;6.40;4.40;;;;;;;13.63;96.75;98160.02;109118;1274;22625;-65
2022/10/02 03:35:13;;;;;;;8.30;3.60;;;;;;;13.61;96.80;98165.80;109196;1273;24057;-65
2022/10/02 03:37:41;;;;;;;5.60;3.80;;;;;;;13.59;96.72;98170.71;109123;1276;22488;-65
2022/10/02 03:40:08;;;;;;;5.90;3.50;;;;;;;13.58;96.87;98179.62;109289;1274;23108;-65
2022/10/02 03:42:35;;;;;;;5.10;3.40;;;;;;;13.57;96.98;98181.29;109267;1275;22511;-65
2022/10/02 03:45:03;;;;;;;7.00;3.40;;;;;;;13.57;97.09;98166.83;109179;1273;23147;-65
2022/10/02 03:47:30;;;;;;;5.70;3.30;;;;;;;13.56;97.03;98159.52;109226;1273;22542;-65
2022/10/02 03:49:56;;;;;;;6.60;3.10;;;;;;;13.55;97.21;98173.34;109302;1274;22456;-65
2022/10/02 03:52:23;;;;;;;3.80;3.30;;;;;;;13.55;97.18;98170.25;109308;1273;22495;-65
2022/10/02 03:54:53;;;;;;;6.20;3.40;;;;;;;13.53;97.35;98159.89;109327;1273;23123;-65
2022/10/02 03:57:21;;;;;;;4.20;3.50;;;;;;;13.51;97.50;98144.46;109316;1273;22496;-65
2022/10/02 04:00:11;;;;;;;5.90;3.10;;;;;;;13.48;97.54;98140.30;109328;1273;22458;-66
2022/10/02 04:03:06;;;;;;;4.70;3.30;;;;;;;13.44;97.59;98142.30;109118;1272;22504;-65
2022/10/02 04:05:34;;;;;;;11.00;3.30;;;;;;;13.41;97.77;98142.15;108940;1279;22470;-65
2022/10/02 04:08:03;;;;;;;4.60;3.70;;;;;;;13.40;97.93;98139.46;108923;1280;22245;-65
2022/10/02 04:10:59;;;;;;;4.90;3.50;;;;;;;13.40;98.08;98134.05;108917;1280;23585;-65
2022/10/02 04:13:32;;;;;;;4.30;3.20;;;;;;;13.39;98.32;98128.38;108846;1280;22497;-65
2022/10/02 04:16:18;;;;;;;8.00;6.60;;;;;;;13.39;98.27;98123.61;109137;1277;22461;-68
2022/10/02 04:18:54;;;;;;;10.50;3.40;;;;;;;13.39;98.47;98121.04;108990;1278;22464;-64
2022/10/02 04:21:26;;;;;;;3.70;3.30;;;;;;;13.39;98.50;98122.52;108829;1278;22448;-65
2022/10/02 04:24:13;;;;;;;5.50;3.40;;;;;;;13.39;98.57;98115.63;108986;1277;22590;-64
2022/10/02 04:26:43;;;;;;;6.40;4.10;;;;;;;13.38;98.65;98105.91;109082;1277;23558;-64
2022/10/02 04:29:16;;;;;;;7.30;3.50;;;;;;;13.38;98.66;98103.07;108795;1277;22589;-64
2022/10/02 04:31:45;;;;;;;4.30;3.60;;;;;;;13.39;98.85;98106.55;109119;1278;22433;-65
2022/10/02 04:34:12;;;;;;;6.90;3.70;;;;;;;13.40;98.92;98101.32;108786;1277;22739;-64
2022/10/02 04:36:41;;;;;;;8.50;3.80;;;;;;;13.41;99.05;98091.73;109034;1277;22538;-65
2022/10/02 04:39:28;;;;;;;5.60;3.70;;;;;;;13.42;99.06;98084.93;109004;1277;22343;-61
2022/10/02 04:42:14;;;;;;;6.40;3.60;;;;;;;13.44;99.16;98073.52;104762;1276;25464;-63
2022/10/02 04:44:43;;;;;;;6.90;3.30;;;;;;;13.43;99.12;98052.13;109493;1271;23592;-64
2022/10/02 04:47:27;;;;;;;16.50;14.10;;;;;;;13.42;99.00;98040.52;109477;1271;22545;-65
2022/10/02 04:49:58;;;;;;;10.90;8.50;;;;;;;13.39;98.94;98033.17;109425;1274;22337;-67
2022/10/02 04:52:44;;;;;;;5.10;4.40;;;;;;;13.38;99.09;98034.61;109489;1271;22509;-66
2022/10/02 04:55:22;;;;;;;7.60;3.80;;;;;;;13.38;99.40;98037.25;109490;1271;23687;-66
2022/10/02 04:58:01;;;;;;;6.50;5.00;;;;;;;13.39;99.52;98038.42;109434;1271;22446;-71
2022/10/02 05:00:33;;;;;;;11.30;4.70;;;;;;;13.41;99.71;98026.61;109467;1271;22522;-67
2022/10/02 05:03:24;;;;;;;6.30;5.00;;;;;;;13.41;99.66;98022.17;109422;1274;22710;-66
2022/10/02 05:05:57;;;;;;;6.90;4.70;;;;;;;13.41;99.76;98015.94;109425;1274;22561;-67
2022/10/02 05:08:45;;;;;;;6.20;4.80;;;;;;;13.42;99.79;98008.13;109449;1273;22469;-67
2022/10/02 05:11:33;;;;;;;10.10;8.80;;;;;;;13.42;99.98;98002.14;109247;1274;22525;-67
2022/10/02 05:14:10;;;;;;;8.70;4.90;;;;;;;13.45;99.99;98001.73;109424;1274;22455;-68
2022/10/02 05:17:24;;;;;;;6.50;4.80;;;;;;;13.47;99.99;98002.08;109353;1274;22548;-67
2022/10/02 05:20:02;;;;;;;8.10;5.60;;;;;;;13.48;100.00;98001.90;108932;1280;22733;-66
2022/10/02 05:22:38;;;;;;;6.40;4.50;;;;;;;13.50;100.00;98003.29;108721;1281;23670;-66
2022/10/02 05:25:14;;;;;;;10.50;6.20;;;;;;;13.51;100.00;98021.42;108660;1281;22460;-66
2022/10/02 05:28:05;;;;;;;11.60;7.50;;;;;;;13.51;99.99;98045.98;108807;1280;22601;-65
2022/10/02 05:30:52;;;;;;;10.80;8.60;;;;;;;13.52;99.95;98049.31;108756;1281;22474;-65
2022/10/02 05:33:31;;;;;;;19.50;7.30;;;;;;;13.52;99.93;98028.35;108680;1281;23030;-65
2022/10/02 05:36:27;;;;;;;10.30;6.40;;;;;;;13.53;100.00;98006.05;108867;1281;22460;-65
2022/10/02 05:39:08;;;;;;;7.40;6.40;;;;;;;13.53;99.99;97994.02;108742;1280;22489;-65
2022/10/02 05:41:37;;;;;;;8.80;6.50;;;;;;;13.53;99.98;97983.06;108710;1281;22415;-67
2022/10/02 05:44:25;;;;;;;7.60;6.80;;;;;;;13.55;99.99;97990.42;108836;1280;22471;-68
2022/10/02 05:47:00;;;;;;;8.00;6.30;;;;;;;13.55;99.99;97986.52;108672;1280;23860;-67
2022/10/02 05:49:40;;;;;;;7.20;6.00;;;;;;;13.56;100.00;97985.10;108800;1281;22433;-67
2022/10/02 05:52:16;;;;;;;7.30;5.90;;;;;;;13.58;100.00;97986.14;108710;1281;23799;-67
2022/10/02 05:54:48;;;;;;;11.20;6.30;;;;;;;13.60;100.00;97981.12;109143;1274;22645;-67
2022/10/02 05:57:40;;;;;;;8.40;6.30;;;;;;;13.60;100.00;97978.20;109496;1273;23292;-67
2022/10/02 06:00:36;;;;;;;9.00;6.80;;;;;;;13.62;100.00;97965.36;109317;1273;23787;-67
2022/10/02 06:03:24;;;;;;;9.30;6.40;;;;;;;13.64;100.00;97965.40;109451;1274;23252;-67
2022/10/02 06:05:59;;;;;;;7.90;6.50;;;;;;;13.65;100.00;97958.04;109572;1271;23063;-67
2022/10/02 06:08:50;;;;;;;7.50;6.30;;;;;;;13.67;100.00;97950.61;109444;1274;23543;-67
2022/10/02 06:11:24;;;;;;;8.50;6.60;;;;;;;13.68;100.00;97940.95;109502;1271;22406;-67
2022/10/02 06:13:53;;;;;;;7.80;5.90;;;;;;;13.68;100.00;97944.95;109485;1271;22505;-67
2022/10/02 06:16:40;;;;;;;12.00;6.80;;;;;;;13.69;100.00;97938.23;109377;1271;22524;-67
2022/10/02 06:22:04;;;;;;;6.80;6.10;;;;;;;13.75;100.00;97945.27;101801;1310;545012;-67
2022/10/02 06:24:52;;;;;;;9.40;6.40;;;;;;;13.75;100.00;97944.83;108566;1283;22402;-67
2022/10/02 06:27:40;;;;;;;7.10;6.40;;;;;;;13.76;100.00;97937.77;108303;1285;22446;-67
2022/10/02 06:30:12;;;;;;;9.00;6.60;;;;;;;13.79;100.00;97938.27;108520;1285;22904;-67
2022/10/02 06:33:00;;;;;;;11.00;6.90;;;;;;;13.79;100.00;97938.09;108337;1284;22440;-66
2022/10/02 06:35:34;;;;;;;8.40;7.20;;;;;;;13.80;100.00;97926.63;107805;1283;869918;-68
2022/10/02 06:38:15;;;;;;;8.40;7.50;;;;;;;13.82;100.00;97925.23;108500;1283;23202;-67
2022/10/02 06:40:50;;;;;;;10.00;7.40;;;;;;;13.82;100.00;97922.09;105575;1283;24191;-65
2022/10/02 06:43:29;;;;;;;9.40;7.30;;;;;;;13.82;100.00;97916.84;104386;1284;22561;-65
2022/10/02 06:46:10;;;;;;;11.80;7.80;;;;;;;13.81;100.00;97917.20;104061;1283;22640;-65
2022/10/02 06:48:58;;;;;;;7.50;6.70;;;;;;;13.81;100.00;97913.85;104346;1284;22580;-67
2022/10/02 06:51:36;;;;;;;8.80;7.50;;;;;;;13.83;100.00;97911.63;104656;1280;22716;-65
2022/10/02 06:54:10;;;;;;;11.30;7.90;;;;;;;13.83;100.00;97907.77;109075;1277;22429;-66
2022/10/02 06:56:44;;;;;;;8.50;7.70;;;;;;;13.84;100.00;97907.16;109053;1278;22517;-67
2022/10/02 06:59:19;;;;;;;10.10;7.20;;;;;;;13.83;100.00;97905.64;108837;1280;23250;-67
2022/10/02 07:02:01;;;;;;;10.60;8.40;;;;;;;13.83;100.00;97904.16;108932;1280;23580;-67
2022/10/02 07:04:52;;;;;;;12.10;9.90;;;;;;;13.85;100.00;97904.31;108946;1280;22496;-67
2022/10/02 07:07:42;;;;;;;13.40;9.10;;;;;;;13.87;100.00;97899.70;108909;1280;22459;-67
2022/10/02 07:10:36;;;;;;;9.30;8.20;;;;;;;13.89;100.00;97894.07;109010;1279;22437;-67
2022/10/02 07:13:21;;;;;;;9.20;7.60;;;;;;;13.91;100.00;97891.77;108729;1280;22580;-67
2022/10/02 07:16:23;;;;;;;11.30;8.90;;;;;;;13.92;100.00;97896.05;108979;1280;22452;-67
2022/10/02 07:19:10;;;;;;;10.00;8.90;;;;;;;13.94;100.00;97895.73;108839;1280;22443;-67
2022/10/02 07:21:49;;;;;;;10.00;9.00;;;;;;;13.95;100.00;97892.65;108964;1280;22503;-67
2022/10/02 07:24:22;;;;;;;9.70;7.80;;;;;;;13.96;100.00;97889.59;108957;1280;23260;-66
2022/10/02 07:27:18;;;;;;;10.00;8.20;;;;;;;13.98;100.00;97887.80;108949;1280;22452;-67
2022/10/02 07:29:55;;;;;;;8.30;7.40;;;;;;;13.99;100.00;97888.34;108777;1280;22480;-67
2022/10/02 07:32:34;;;;;;;8.40;7.60;;;;;;;13.99;100.00;97885.52;108651;1280;22454;-67
2022/10/02 07:35:20;;;;;;;10.30;7.20;;;;;;;14.00;100.00;97889.98;108973;1280;23720;-67
2022/10/02 07:38:09;;;;;;;9.20;8.30;;;;;;;14.00;100.00;97891.01;108964;1280;22524;-67
2022/10/02 07:41:01;;;;;;;13.20;8.70;;;;;;;14.00;100.00;97888.29;106250;1280;22724;-66
2022/10/02 07:43:35;;;;;;;11.70;9.70;;;;;;;14.00;100.00;97888.99;104462;1280;22560;-66
2022/10/02 07:46:13;;;;;;;11.40;9.50;;;;;;;14.00;100.00;97888.20;104484;1280;23043;-68
2022/10/02 07:48:59;;;;;;;12.30;9.90;;;;;;;13.98;100.00;97883.45;104482;1280;24256;-65
2022/10/02 07:51:55;;;;;;;26.90;21.30;;;;;;;13.98;100.00;97882.48;104395;1280;26110;-71
2022/10/02 07:54:38;;;;;;;16.70;14.70;;;;;;;13.97;100.00;97879.29;103752;1286;27812;-68
2022/10/02 07:57:28;;;;;;;12.20;10.80;;;;;;;13.97;100.00;97874.20;103893;1286;24282;-65
2022/10/02 08:00:00;;;;;;;19.60;11.50;;;;;;;13.96;100.00;97870.48;108203;1286;22516;-68
2022/10/02 08:02:38;;;;;;;12.40;10.80;;;;;;;13.95;100.00;97862.63;107982;1285;22443;-68
2022/10/02 08:05:12;;;;;;;12.00;10.50;;;;;;;13.94;100.00;97858.27;108035;1286;23177;-67
2022/10/02 08:07:39;;;;;;;12.60;10.80;;;;;;;13.94;100.00;97853.58;108008;1287;23509;-67
2022/10/02 08:10:07;;;;;;;16.40;12.90;;;;;;;13.93;100.00;97845.83;107981;1287;22485;-67
2022/10/02 08:12:37;;;;;;;38.10;28.10;;;;;;;13.92;100.00;97840.98;107982;1287;22476;-67
2022/10/02 08:15:05;;;;;;;12.90;11.30;;;;;;;13.93;100.00;97836.79;108022;1287;22454;-66
2022/10/02 08:17:38;;;;;;;14.50;9.70;;;;;;;13.93;100.00;97827.02;108193;1286;23331;-67
2022/10/02 08:20:16;;;;;;;11.10;9.90;;;;;;;13.95;100.00;97821.08;108169;1286;22480;-66
2022/10/02 08:22:45;;;;;;;11.40;9.40;;;;;;;13.95;100.00;97819.81;108085;1287;22471;-67
2022/10/02 08:25:37;;;;;;;10.90;9.60;;;;;;;13.96;100.00;97820.88;108081;1286;22488;-66
2022/10/02 08:28:22;;;;;;;12.20;9.50;;;;;;;13.97;100.00;97816.12;108198;1286;22481;-67
2022/10/02 08:30:49;;;;;;;10.80;9.50;;;;;;;14.02;100.00;97819.03;108490;1280;22402;-67
2022/10/02 08:33:20;;;;;;;12.00;10.20;;;;;;;14.06;100.00;97812.11;108624;1281;22450;-67
2022/10/02 08:36:00;;;;;;;11.70;9.00;;;;;;;14.12;100.00;97812.63;108954;1280;22514;-67
2022/10/02 08:38:38;;;;;;;11.10;9.10;;;;;;;14.21;100.00;97816.30;109012;1280;22518;-67
2022/10/02 08:41:36;;;;;;;8.40;7.60;;;;;;;14.28;100.00;97816.86;105067;1281;23224;-67
2022/10/02 08:44:24;;;;;;;6.50;5.50;;;;;;;14.32;100.00;97814.64;104603;1280;22569;-65
2022/10/02 08:47:07;;;;;;;5.30;4.80;;;;;;;14.35;100.00;97811.00;104647;1281;22592;-66
2022/10/02 08:49:39;;;;;;;7.20;5.60;;;;;;;14.37;100.00;97806.33;104174;1283;26157;-67
2022/10/02 08:52:34;;;;;;;4.80;4.30;;;;;;;14.40;100.00;97803.64;104484;1280;23016;-65
2022/10/02 08:55:20;;;;;;;4.50;4.10;;;;;;;14.41;100.00;97805.52;104523;1280;24423;-67
2022/10/02 08:58:29;;;;;;;5.10;4.10;;;;;;;14.41;100.00;97804.48;104598;1281;22598;-67
2022/10/02 09:01:34;;;;;;;6.20;3.50;;;;;;;14.39;100.00;97802.71;104499;1280;22582;-65
2022/10/02 09:04:08;;;;;;;8.90;7.90;;;;;;;14.38;100.00;97807.36;104649;1280;23482;-64
2022/10/02 09:06:58;;;;;;;21.50;16.50;;;;;;;14.37;100.00;97801.61;104648;1280;23212;-66
2022/10/02 09:09:44;;;;;;;4.30;3.40;;;;;;;14.38;100.00;97800.11;104290;1283;23689;-67
2022/10/02 09:12:26;;;;;;;3.40;3.00;;;;;;;14.40;100.00;97802.33;104403;1281;25098;-67
2022/10/02 09:15:11;;;;;;;3.40;3.10;;;;;;;14.41;100.00;97800.04;104478;1280;22716;-66
2022/10/02 09:17:44;;;;;;;3.60;3.20;;;;;;;14.42;100.00;97804.70;104488;1280;23986;-67
2022/10/02 09:20:29;;;;;;;4.30;2.60;;;;;;;14.44;100.00;97803.05;104520;1280;22568;-68
2022/10/02 09:23:22;;;;;;;2.70;2.40;;;;;;;14.45;100.00;97801.30;104512;1280;25426;-67
2022/10/02 09:26:03;;;;;;;2.60;2.40;;;;;;;14.46;100.00;97802.17;104383;1281;23196;-66
2022/10/02 09:28:40;;;;;;;2.40;2.00;;;;;;;14.46;100.00;97809.23;104525;1280;24231;-68
2022/10/02 09:31:39;;;;;;;2.40;2.20;;;;;;;14.47;100.00;97809.98;108792;1279;22468;-68
2022/10/02 09:34:38;;;;;;;57.90;42.70;;;;;;;14.45;100.00;97811.23;108879;1280;22424;-66
2022/10/02 09:37:27;;;;;;;10.60;8.50;;;;;;;14.43;100.00;97809.05;108859;1280;22414;-66
2022/10/02 09:40:19;;;;;;;2.60;2.10;;;;;;;14.42;100.00;97810.95;108793;1280;23393;-64
2022/10/02 09:43:10;;;;;;;1.70;1.60;;;;;;;14.40;99.74;97807.58;108648;1280;22407;-64
2022/10/02 09:45:47;;;;;;;2.80;2.10;;;;;;;14.38;99.13;97808.39;108943;1280;22619;-63
2022/10/02 09:48:41;;;;;;;2.30;1.80;;;;;;;14.38;98.66;97814.10;108995;1279;22437;-63
2022/10/02 09:51:30;;;;;;;2.90;1.60;;;;;;;14.38;98.15;97816.55;108896;1280;22447;-64
2022/10/02 09:54:17;;;;;;;1.60;1.50;;;;;;;14.42;98.10;97811.90;108788;1280;22436;-63
2022/10/02 09:57:21;;;;;;;2.00;1.80;;;;;;;14.49;98.22;97802.88;109027;1280;22323;-63
2022/10/02 09:59:57;;;;;;;1.80;1.50;;;;;;;14.63;98.35;97799.92;109199;1277;22465;-63
2022/10/02 10:02:52;;;;;;;1.90;1.70;;;;;;;14.75;98.22;97795.83;109215;1276;22578;-63
2022/10/02 10:05:40;;;;;;;2.80;1.70;;;;;;;14.88;97.53;97796.93;109141;1277;22433;-64
2022/10/02 10:08:45;;;;;;;1.70;1.30;;;;;;;14.98;96.43;97792.91;109221;1277;22376;-64
2022/10/02 10:11:37;;;;;;;3.20;1.50;;;;;;;15.05;95.31;97796.09;109456;1273;22623;-64
2022/10/02 10:14:23;;;;;;;1.70;1.60;;;;;;;15.09;94.73;97801.02;109481;1271;22500;-65
2022/10/02 10:17:07;;;;;;;5.70;4.80;;;;;;;15.11;94.34;97801.89;109538;1271;22564;-63
2022/10/02 10:19:34;;;;;;;4.50;2.80;;;;;;;15.12;94.03;97802.11;109483;1271;22627;-66
2022/10/02 10:22:13;;;;;;;3.50;2.50;;;;;;;15.10;93.45;97804.23;109570;1271;22442;-63
2022/10/02 10:24:49;;;;;;;4.90;2.70;;;;;;;15.06;93.19;97802.83;109487;1271;23262;-64
2022/10/02 10:27:47;;;;;;;3.60;2.80;;;;;;;15.00;93.09;97803.16;109541;1273;22449;-63
2022/10/02 10:30:27;;;;;;;6.00;3.80;;;;;;;14.95;93.22;97805.05;109575;1271;22465;-63
2022/10/02 10:32:55;;;;;;;14.10;8.90;;;;;;;14.91;93.42;97809.28;109567;1269;22495;-63
2022/10/02 10:35:37;;;;;;;5.20;1.70;;;;;;;14.88;93.41;97818.23;109456;1271;23873;-63
2022/10/02 10:38:32;;;;;;;4.00;1.60;;;;;;;14.76;92.32;97823.72;109570;1271;22437;-63
2022/10/02 10:41:20;;;;;;;4.90;1.80;;;;;;;14.57;91.48;97830.92;109499;1271;22481;-65
2022/10/02 10:44:11;;;;;;;3.60;2.00;;;;;;;14.35;91.38;97836.70;109571;1270;22536;-65
2022/10/02 10:46:58;;;;;;;1.60;1.50;;;;;;;14.15;91.47;97836.34;109528;1271;23212;-65
2022/10/02 10:49:43;;;;;;;1.30;0.90;;;;;;;13.96;91.77;97845.99;109434;1271;23568;-66
2022/10/02 10:52:36;;;;;;;1.90;1.50;;;;;;;13.81;92.13;97851.17;109483;1272;22443;-66
2022/10/02 10:55:18;;;;;;;4.00;1.60;;;;;;;13.67;92.73;97847.55;109643;1271;22437;-65
2022/10/02 10:57:51;;;;;;;1.90;1.40;;;;;;;13.58;93.13;97849.44;109562;1271;22573;-66
2022/10/02 11:00:25;;;;;;;2.50;2.00;;;;;;;13.49;93.43;97849.33;109485;1273;22454;-66
2022/10/02 11:03:22;;;;;;;2.50;1.90;;;;;;;13.39;93.39;97852.16;109485;1271;22464;-66
2022/10/02 11:06:12;;;;;;;5.20;2.30;;;;;;;13.28;93.43;97859.55;109615;1271;22533;-66
2022/10/02 11:09:17;;;;;;;2.50;1.80;;;;;;;13.17;93.66;97858.91;109526;1272;22613;-68
2022/10/02 11:12:29;;;;;;;3.70;2.20;;;;;;;13.06;94.03;97860.42;109490;1271;23193;-66
2022/10/02 11:15:17;;;;;;;2.10;1.10;;;;;;;12.98;93.84;97869.23;109107;1277;22514;-66
2022/10/02 11:18:11;;;;;;;2.00;1.30;;;;;;;12.90;93.58;97861.85;109240;1277;22337;-66
2022/10/02 11:21:02;;;;;;;1.80;1.20;;;;;;;12.83;93.77;97862.86;109143;1275;22495;-66
2022/10/02 11:23:42;;;;;;;1.40;0.90;;;;;;;12.78;93.59;97861.89;108923;1277;22549;-66
2022/10/02 11:26:27;;;;;;;1.70;1.00;;;;;;;12.72;93.26;97859.84;109118;1277;22547;-66
2022/10/02 11:29:10;;;;;;;1.80;1.40;;;;;;;12.68;93.13;97865.89;109046;1277;22462;-65
2022/10/02 11:31:42;;;;;;;1.30;1.20;;;;;;;12.62;93.09;97868.41;109212;1277;22283;-66
2022/10/02 11:34:31;;;;;;;2.20;1.90;;;;;;;12.55;92.54;97872.80;109247;1275;22357;-66
2022/10/02 11:37:24;;;;;;;2.80;2.00;;;;;;;12.51;92.95;97879.68;109108;1277;22435;-67
2022/10/02 11:40:18;;;;;;;8.00;5.90;;;;;;;12.47;92.76;97877.27;107873;1277;24264;-62
2022/10/02 11:43:10;;;;;;;2.70;1.50;;;;;;;12.41;92.14;97875.55;104661;1277;25220;-64
2022/10/02 11:46:20;;;;;;;3.70;1.10;;;;;;;12.32;91.39;97873.36;104676;1277;22740;-64
2022/10/02 11:49:02;;;;;;;3.30;1.30;;;;;;;12.20;91.08;97870.09;104322;1283;25503;-63
2022/10/02 11:51:45;;;;;;;1.60;1.10;;;;;;;12.12;91.15;97879.69;104406;1279;24553;-62
2022/10/02 11:54:15;;;;;;;1.40;0.70;;;;;;;12.03;90.99;97869.82;104446;1280;25463;-63
2022/10/02 11:57:04;;;;;;;1.70;1.10;;;;;;;11.98;91.43;97876.05;104526;1280;25392;-64
2022/10/02 11:59:37;;;;;;;1.40;1.00;;;;;;;11.92;91.53;97878.42;104563;1279;25357;-63
2022/10/02 12:02:21;;;;;;;1.40;0.80;;;;;;;11.86;91.57;97872.05;104633;1278;22555;-62
2022/10/02 12:05:16;;;;;;;2.40;0.80;;;;;;;11.77;91.10;97865.66;108757;1278;22585;-64
2022/10/02 12:08:04;;;;;;;1.60;1.00;;;;;;;11.68;91.53;97868.88;108980;1278;23219;-64
2022/10/02 12:10:47;;;;;;;;;;;;;;;11.62;91.82;97871.51;108848;1279;22636;-65
2022/10/02 12:13:28;;;;;;;1.80;1.10;;;;;;;11.57;91.70;97875.42;108814;1279;22534;-64
2022/10/02 12:16:34;;;;;;;1.80;1.00;;;;;;;11.52;91.96;97873.91;108774;1277;22471;-64
2022/10/02 12:19:26;;;;;;;4.70;2.40;;;;;;;11.49;92.50;97872.11;108942;1278;22534;-64
2022/10/02 12:28:38;;;;;;;2.60;1.70;;;;;;;11.38;91.20;97874.37;109150;1276;22593;-62
2022/10/02 12:31:12;;;;;;;2.00;1.10;;;;;;;11.36;91.10;97867.16;108907;1276;22494;-64
2022/10/02 12:33:44;;;;;;;5.30;3.00;;;;;;;11.32;90.76;97860.89;108986;1280;23294;-63